createdAt,value
2023-05-12T00:00:49.438Z,8.10
2023-05-12T00:03:16.676Z,8.10
2023-05-12T00:05:44.345Z,7.50
2023-05-12T00:08:11.488Z,9.40
2023-05-12T00:10:38.646Z,7.20
2023-05-12T00:13:06.002Z,7.90
2023-05-12T00:15:33.147Z,9.20
2023-05-12T00:18:00.319Z,11.50
2023-05-12T00:20:27.453Z,8.40
2023-05-12T00:22:54.598Z,8.70
2023-05-12T00:25:21.755Z,7.50
2023-05-12T00:27:48.829Z,13.10
2023-05-12T00:30:16.483Z,8.60
2023-05-12T00:32:43.674Z,6.60
2023-05-12T00:35:10.878Z,8.60
2023-05-12T00:37:38.239Z,8.30
2023-05-12T00:40:06.138Z,11.60
2023-05-12T00:42:35.216Z,6.40
2023-05-12T00:45:03.007Z,5.70
2023-05-12T00:47:30.683Z,6.40
2023-05-12T00:49:57.890Z,8.50
2023-05-12T00:52:25.451Z,7.70
2023-05-12T00:54:52.729Z,10.60
2023-05-12T00:57:21.055Z,11.10
2023-05-12T00:59:48.440Z,9.70
2023-05-12T01:02:16.144Z,7.90
2023-05-12T01:04:43.668Z,8.20
2023-05-12T01:07:15.230Z,8.80
2023-05-12T01:09:42.478Z,8.30
2023-05-12T01:12:10.144Z,6.50
2023-05-12T01:14:37.913Z,8.60
2023-05-12T01:17:09.102Z,10.10
2023-05-12T01:19:55.253Z,8.70
2023-05-12T01:22:22.638Z,9.00
2023-05-12T01:24:58.314Z,6.00
2023-05-12T01:27:27.771Z,9.50
2023-05-12T01:32:26.688Z,7.30
2023-05-12T01:34:54.033Z,8.10
2023-05-12T01:37:21.601Z,6.50
2023-05-12T01:39:48.763Z,8.50
2023-05-12T01:42:19.686Z,7.80
2023-05-12T01:44:47.451Z,9.10
2023-05-12T01:47:16.168Z,7.90
2023-05-12T01:49:49.231Z,8.90
2023-05-12T01:52:16.889Z,10.00
2023-05-12T01:54:44.047Z,9.20
2023-05-12T01:57:12.222Z,9.00
2023-05-12T01:59:39.575Z,11.60
2023-05-12T02:02:07.566Z,7.20
2023-05-12T02:04:34.899Z,8.00
2023-05-12T02:07:02.256Z,8.00
2023-05-12T02:09:29.614Z,7.80
2023-05-12T02:12:00.248Z,9.70
2023-05-12T02:14:27.605Z,11.90
2023-05-12T02:16:55.696Z,9.90
2023-05-12T02:19:24.056Z,8.20
2023-05-12T02:21:51.221Z,8.60
2023-05-12T02:24:18.364Z,8.40
2023-05-12T02:26:45.719Z,10.20
2023-05-12T02:29:13.687Z,9.20
2023-05-12T02:31:41.334Z,10.20
2023-05-12T02:34:15.985Z,11.40
2023-05-12T02:36:43.131Z,9.60
2023-05-12T02:39:10.893Z,14.70
2023-05-12T02:41:38.966Z,11.10
2023-05-12T02:44:06.121Z,8.50
2023-05-12T02:46:33.271Z,10.80
2023-05-12T02:49:00.428Z,9.80
2023-05-12T02:51:27.586Z,9.40
2023-05-12T02:53:54.728Z,7.60
2023-05-12T02:56:22.577Z,8.40
2023-05-12T02:58:49.849Z,7.40
2023-05-12T03:01:17.065Z,12.20
2023-05-12T03:03:44.522Z,12.80
2023-05-12T03:06:12.126Z,9.00
2023-05-12T03:08:39.380Z,10.80
2023-05-12T03:11:06.733Z,10.60
2023-05-12T03:13:34.002Z,8.40
2023-05-12T03:16:01.949Z,10.80
2023-05-12T03:18:29.778Z,10.30
2023-05-12T03:20:57.798Z,8.80
2023-05-12T03:23:25.168Z,14.80
2023-05-12T03:25:52.305Z,11.10
2023-05-12T03:28:19.455Z,10.90
2023-05-12T03:30:46.612Z,9.60
2023-05-12T03:33:13.769Z,14.40
2023-05-12T03:35:41.028Z,9.20
2023-05-12T03:38:08.112Z,11.90
2023-05-12T03:40:35.229Z,12.70
2023-05-12T03:43:03.084Z,10.40
2023-05-12T03:45:30.240Z,8.10
2023-05-12T03:47:57.417Z,13.20
2023-05-12T03:50:24.543Z,8.80
2023-05-12T03:52:56.227Z,12.30
2023-05-12T03:55:23.456Z,9.20
2023-05-12T03:57:50.608Z,10.20
2023-05-12T04:00:18.807Z,12.60
2023-05-12T04:02:46.719Z,10.70
2023-05-12T04:05:14.310Z,10.90
2023-05-12T04:07:41.799Z,10.80
2023-05-12T04:10:09.333Z,14.80
2023-05-12T04:12:36.483Z,8.40
2023-05-12T04:15:05.190Z,17.20
2023-05-12T04:17:32.340Z,18.50
2023-05-12T04:19:59.574Z,13.50
2023-05-12T04:22:27.140Z,14.80
2023-05-12T04:24:54.603Z,14.00
2023-05-12T04:27:22.063Z,14.90
2023-05-12T04:29:49.225Z,12.40
2023-05-12T04:32:16.380Z,11.90
2023-05-12T04:34:43.733Z,13.10
2023-05-12T04:37:11.089Z,10.80
2023-05-12T04:39:38.251Z,18.00
2023-05-12T04:42:06.069Z,21.00
2023-05-12T04:44:34.499Z,12.60
2023-05-12T04:47:01.639Z,13.80
2023-05-12T04:49:30.532Z,12.60
2023-05-12T04:51:57.802Z,13.70
2023-05-12T04:54:25.045Z,9.80
2023-05-12T04:56:52.608Z,10.60
2023-05-12T04:59:19.989Z,10.20
2023-05-12T05:01:49.396Z,9.60
2023-05-12T05:04:17.150Z,6.90
2023-05-12T05:06:44.292Z,6.90
2023-05-12T05:09:11.855Z,11.50
2023-05-12T05:11:40.745Z,11.20
2023-05-12T05:14:08.015Z,11.10
2023-05-12T05:16:36.177Z,12.90
2023-05-12T05:19:06.355Z,12.70
2023-05-12T05:21:35.010Z,12.60
2023-05-12T05:24:02.128Z,7.00
2023-05-12T05:26:29.290Z,8.20
2023-05-12T05:28:56.546Z,8.30
2023-05-12T05:31:25.534Z,11.30
2023-05-12T05:33:52.732Z,9.00
2023-05-12T05:36:20.558Z,7.20
2023-05-12T05:38:48.525Z,6.60
2023-05-12T05:41:15.684Z,5.60
2023-05-12T05:43:42.810Z,7.30
2023-05-12T05:46:10.405Z,5.10
2023-05-12T05:48:38.877Z,9.80
2023-05-12T05:51:06.952Z,17.50
2023-05-12T05:53:34.203Z,13.30
2023-05-12T05:56:01.779Z,18.20
2023-05-12T05:58:29.243Z,16.40
2023-05-12T06:00:56.373Z,12.30
2023-05-12T06:03:23.925Z,7.10
2023-05-12T06:05:51.494Z,11.40
2023-05-12T06:08:19.100Z,7.10
2023-05-12T06:10:46.321Z,7.70
2023-05-12T06:13:13.459Z,6.00
2023-05-12T06:15:40.610Z,7.50
2023-05-12T06:18:07.978Z,7.50
2023-05-12T06:20:35.218Z,7.80
2023-05-12T06:23:02.369Z,14.40
2023-05-12T06:25:29.588Z,13.70
2023-05-12T06:27:56.780Z,6.40
2023-05-12T06:30:24.336Z,6.60
2023-05-12T06:32:55.156Z,7.20
2023-05-12T06:35:22.739Z,8.40
2023-05-12T06:37:51.317Z,5.30
2023-05-12T06:40:18.778Z,6.50
2023-05-12T06:42:45.927Z,8.50
2023-05-12T06:45:17.499Z,5.60
2023-05-12T06:47:44.874Z,7.80
2023-05-12T06:50:12.099Z,5.70
2023-05-12T06:52:39.454Z,7.20
2023-05-12T06:55:07.313Z,9.00
2023-05-12T06:57:35.190Z,6.30
2023-05-12T07:00:03.673Z,5.70
2023-05-12T07:02:31.234Z,6.50
2023-05-12T07:04:58.592Z,4.10
2023-05-12T07:07:25.746Z,7.40
2023-05-12T07:09:52.893Z,4.40
2023-05-12T07:12:20.045Z,7.10
2023-05-12T07:14:48.827Z,4.30
2023-05-12T07:17:15.982Z,4.70
2023-05-12T07:19:43.946Z,3.60
2023-05-12T07:22:11.406Z,4.90
2023-05-12T07:24:38.968Z,5.70
2023-05-12T07:27:06.538Z,6.50
2023-05-12T07:29:33.679Z,8.90
2023-05-12T07:32:00.829Z,8.50
2023-05-12T07:34:27.981Z,2.40
2023-05-12T07:36:55.134Z,5.00
2023-05-12T07:39:24.064Z,8.00
2023-05-12T07:41:53.126Z,5.20
2023-05-12T07:44:20.190Z,3.40
2023-05-12T07:46:47.562Z,3.60
2023-05-12T07:49:14.702Z,6.90
2023-05-12T07:51:41.833Z,6.00
2023-05-12T07:54:08.986Z,3.00
2023-05-12T07:56:36.142Z,4.90
2023-05-12T07:59:03.600Z,4.50
2023-05-12T08:01:32.036Z,4.60
2023-05-12T08:03:59.570Z,5.10
2023-05-12T08:06:26.794Z,3.80
2023-05-12T08:08:54.152Z,4.50
2023-05-12T08:11:21.303Z,4.10
2023-05-12T08:13:48.455Z,7.20
2023-05-12T08:16:15.655Z,5.00
2023-05-12T08:18:42.881Z,3.50
2023-05-12T08:21:10.128Z,2.60
2023-05-12T08:23:40.283Z,3.20
2023-05-12T08:26:07.380Z,5.40
2023-05-12T08:28:34.637Z,4.40
2023-05-12T08:31:04.847Z,4.50
2023-05-12T08:33:32.224Z,4.60
2023-05-12T08:35:59.372Z,3.60
2023-05-12T08:38:26.522Z,3.80
2023-05-12T08:41:13.859Z,3.50
2023-05-12T08:43:45.811Z,3.80
2023-05-12T08:46:13.556Z,4.00
2023-05-12T08:48:41.550Z,5.00
2023-05-12T08:51:13.534Z,5.10
2023-05-12T08:53:41.888Z,7.60
2023-05-12T08:58:42.414Z,5.90
2023-05-12T09:01:10.460Z,5.80
2023-05-12T09:03:39.319Z,4.60
2023-05-12T09:06:06.964Z,5.30
2023-05-12T09:08:35.446Z,8.20
2023-05-12T09:11:02.824Z,5.80
2023-05-12T09:13:46.540Z,6.60
2023-05-12T09:16:14.092Z,3.90
2023-05-12T09:18:49.317Z,7.70
2023-05-12T09:21:16.502Z,2.90
2023-05-12T09:24:00.863Z,5.60
2023-05-12T09:26:28.688Z,4.40
2023-05-12T09:29:06.746Z,4.70
2023-05-12T09:31:34.270Z,3.20
2023-05-12T09:34:02.676Z,4.50
2023-05-12T09:36:29.823Z,3.40
2023-05-12T09:39:04.645Z,6.50
2023-05-12T09:41:35.290Z,3.40
2023-05-12T09:44:02.749Z,6.60
2023-05-12T09:46:30.385Z,5.40
2023-05-12T09:48:59.516Z,3.60
2023-05-12T09:51:27.281Z,5.60
2023-05-12T09:53:54.529Z,2.90
2023-05-12T09:56:22.235Z,2.70
2023-05-12T09:58:49.855Z,5.10
2023-05-12T10:01:23.425Z,4.10
2023-05-12T10:03:56.146Z,5.70
2023-05-12T10:06:34.391Z,4.00
2023-05-12T10:09:19.734Z,5.80
2023-05-12T10:11:47.901Z,3.90
2023-05-12T10:14:15.060Z,5.10
2023-05-12T10:16:42.249Z,4.70
2023-05-12T10:19:11.644Z,3.90
2023-05-12T10:21:38.757Z,3.20
2023-05-12T10:24:06.417Z,4.30
2023-05-12T10:26:35.318Z,4.80
2023-05-12T10:29:02.667Z,6.40
2023-05-12T10:31:29.902Z,5.00
2023-05-12T10:34:01.113Z,4.80
2023-05-12T10:36:29.344Z,3.00
2023-05-12T10:38:56.831Z,4.50
2023-05-12T10:41:31.999Z,3.40
2023-05-12T10:43:59.301Z,2.50
2023-05-12T10:46:30.651Z,2.70
2023-05-12T10:49:09.081Z,6.60
2023-05-12T10:51:45.458Z,3.70
2023-05-12T10:54:18.525Z,4.60
2023-05-12T10:56:46.243Z,3.90
2023-05-12T10:59:24.461Z,4.80
2023-05-12T11:02:03.908Z,4.80
2023-05-12T11:04:42.073Z,3.50
2023-05-12T11:07:11.803Z,4.30
2023-05-12T11:12:26.946Z,4.30
2023-05-12T11:14:54.122Z,5.80
2023-05-12T11:17:21.362Z,4.80
2023-05-12T11:19:49.739Z,5.20
2023-05-12T11:22:18.600Z,2.70
2023-05-12T11:26:40.787Z,2.40
2023-05-12T11:29:07.937Z,5.50
2023-05-12T11:31:35.141Z,4.50
2023-05-12T11:34:12.538Z,4.60
2023-05-12T11:36:42.806Z,4.50
2023-05-12T11:39:17.044Z,3.20
2023-05-12T11:41:45.012Z,2.60
2023-05-12T11:44:16.038Z,3.30
2023-05-12T11:47:02.642Z,2.70
2023-05-12T11:49:31.144Z,4.10
2023-05-12T11:52:00.219Z,5.50
2023-05-12T11:54:31.061Z,4.70
2023-05-12T11:56:58.328Z,4.30
2023-05-12T11:59:33.266Z,3.10
2023-05-12T12:02:01.989Z,2.60
2023-05-12T12:04:40.502Z,4.40
2023-05-12T12:07:08.534Z,2.90
2023-05-12T12:09:43.365Z,4.30
2023-05-12T12:12:11.641Z,3.30
2023-05-12T12:14:39.101Z,3.20
2023-05-12T12:17:06.255Z,6.80
2023-05-12T12:19:33.713Z,2.50
2023-05-12T12:22:00.864Z,3.20
2023-05-12T12:24:28.026Z,5.00
2023-05-12T12:26:55.165Z,2.20
2023-05-12T12:29:24.162Z,4.50
2023-05-12T12:31:51.498Z,3.70
2023-05-12T12:34:19.490Z,3.20
2023-05-12T12:36:48.175Z,3.10
2023-05-12T12:39:16.778Z,3.70
2023-05-12T12:41:48.334Z,6.60
2023-05-12T12:44:16.095Z,2.50
2023-05-12T12:46:43.419Z,3.70
2023-05-12T12:49:10.701Z,3.10
2023-05-12T12:51:45.654Z,4.00
2023-05-12T12:54:15.248Z,4.30
2023-05-12T12:56:44.458Z,2.60
2023-05-12T12:59:12.214Z,3.60
2023-05-12T13:01:39.354Z,9.20
2023-05-12T13:04:06.509Z,5.40
2023-05-12T13:06:33.662Z,3.00
2023-05-12T13:09:01.830Z,7.20
2023-05-12T13:11:29.201Z,4.20
2023-05-12T13:13:56.348Z,5.10
2023-05-12T13:16:23.523Z,6.50
2023-05-12T13:18:51.110Z,2.80
2023-05-12T13:21:19.043Z,3.60
2023-05-12T13:23:46.191Z,6.10
2023-05-12T13:26:14.071Z,5.40
2023-05-12T13:28:41.295Z,4.20
2023-05-12T13:31:08.535Z,3.70
2023-05-12T13:33:35.705Z,5.80
2023-05-12T13:36:02.857Z,5.20
2023-05-12T13:38:31.038Z,5.50
2023-05-12T13:40:58.180Z,4.00
2023-05-12T13:43:25.444Z,6.50
2023-05-12T13:45:52.632Z,4.20
2023-05-12T13:48:19.976Z,3.30
2023-05-12T13:50:47.400Z,3.60
2023-05-12T13:53:14.552Z,2.80
2023-05-12T13:55:41.912Z,3.40
2023-05-12T13:58:09.064Z,8.20
2023-05-12T14:00:36.211Z,3.40
2023-05-12T14:03:03.394Z,3.80
2023-05-12T14:05:30.756Z,4.00
2023-05-12T14:07:58.082Z,4.60
2023-05-12T14:10:25.229Z,6.20
2023-05-12T14:12:52.380Z,5.20
2023-05-12T14:15:32.510Z,4.00
2023-05-12T14:18:03.604Z,2.80
2023-05-12T14:20:30.835Z,4.10
2023-05-12T14:22:58.189Z,4.00
2023-05-12T14:25:25.661Z,3.90
2023-05-12T14:27:52.826Z,5.70
2023-05-12T14:30:22.094Z,2.30
2023-05-12T14:32:50.008Z,4.10
2023-05-12T14:35:17.270Z,4.20
2023-05-12T14:37:44.372Z,3.50
2023-05-12T14:40:12.506Z,3.90
2023-05-12T14:42:40.020Z,4.60
2023-05-12T14:45:08.281Z,3.10
2023-05-12T14:47:35.677Z,3.50
2023-05-12T14:50:03.121Z,4.60
2023-05-12T14:52:31.389Z,3.50
2023-05-12T14:54:58.547Z,3.10
2023-05-12T14:57:25.797Z,10.00
2023-05-12T14:59:56.637Z,4.20
2023-05-12T15:02:23.851Z,4.90
2023-05-12T15:04:51.046Z,3.90
2023-05-12T15:07:18.189Z,2.10
2023-05-12T15:09:45.247Z,2.60
2023-05-12T15:12:12.408Z,5.60
2023-05-12T15:14:39.547Z,3.10
2023-05-12T15:17:06.747Z,3.40
2023-05-12T15:19:33.952Z,3.20
2023-05-12T15:22:01.206Z,3.60
2023-05-12T15:24:29.075Z,3.50
2023-05-12T15:26:56.338Z,5.50
2023-05-12T15:29:24.096Z,4.70
2023-05-12T15:31:51.605Z,2.90
2023-05-12T15:34:18.815Z,4.20
2023-05-12T15:36:48.996Z,2.90
2023-05-12T15:39:19.520Z,5.70
2023-05-12T15:41:47.741Z,3.90
2023-05-12T15:44:15.299Z,4.60
2023-05-12T15:46:43.018Z,3.30
2023-05-12T15:49:10.526Z,3.50
2023-05-12T15:51:37.790Z,4.60
2023-05-12T15:54:07.145Z,5.60
2023-05-12T15:56:36.701Z,4.80
2023-05-12T15:59:05.479Z,9.40
2023-05-12T16:01:32.779Z,6.80
2023-05-12T16:04:00.269Z,4.50
2023-05-12T16:06:27.563Z,4.90
2023-05-12T16:08:54.700Z,3.20
2023-05-12T16:11:21.851Z,4.90
2023-05-12T16:13:49.006Z,5.20
2023-05-12T16:16:16.175Z,6.50
2023-05-12T16:18:43.861Z,10.50
2023-05-12T16:21:13.015Z,7.70
2023-05-12T16:23:40.277Z,2.70
2023-05-12T16:26:07.524Z,5.40
2023-05-12T16:28:34.985Z,3.10
2023-05-12T16:31:02.956Z,6.60
2023-05-12T16:33:30.111Z,4.30
2023-05-12T16:35:57.773Z,5.50
2023-05-12T16:38:24.924Z,3.90
2023-05-12T16:40:52.296Z,3.70
2023-05-12T16:43:19.540Z,5.70
2023-05-12T16:45:46.803Z,5.30
2023-05-12T16:48:14.054Z,5.20
2023-05-12T16:50:41.195Z,5.20
2023-05-12T16:53:08.348Z,4.20
2023-05-12T16:55:35.510Z,3.70
2023-05-12T16:58:03.163Z,6.20
2023-05-12T17:00:30.319Z,2.80
2023-05-12T17:02:57.529Z,4.90
2023-05-12T17:05:25.077Z,6.20
2023-05-12T17:07:52.593Z,3.20
2023-05-12T17:10:19.759Z,4.80
2023-05-12T17:12:47.001Z,4.60
2023-05-12T17:15:14.153Z,2.40
2023-05-12T17:17:41.316Z,3.60
2023-05-12T17:20:09.373Z,3.30
2023-05-12T17:22:41.668Z,5.40
2023-05-12T17:25:09.427Z,2.90
2023-05-12T17:27:36.815Z,5.00
2023-05-12T17:30:04.882Z,6.80
2023-05-12T17:32:32.233Z,7.10
2023-05-12T17:34:59.460Z,5.80
2023-05-12T17:37:26.623Z,7.30
2023-05-12T17:39:54.069Z,7.60
2023-05-12T17:42:21.545Z,8.10
2023-05-12T17:44:48.693Z,6.70
2023-05-12T17:47:16.182Z,5.60
2023-05-12T17:49:43.809Z,7.20
2023-05-12T17:52:10.966Z,8.60
2023-05-12T17:54:38.123Z,10.00
2023-05-12T17:57:05.984Z,13.20
2023-05-12T17:59:33.080Z,7.20
2023-05-12T18:02:00.441Z,5.70
2023-05-12T18:04:27.655Z,6.70
2023-05-12T18:06:55.311Z,12.70
2023-05-12T18:09:23.798Z,8.50
2023-05-12T18:11:51.152Z,7.30
2023-05-12T18:14:18.305Z,10.40
2023-05-12T18:16:45.491Z,9.90
2023-05-12T18:19:12.820Z,11.20
2023-05-12T18:21:39.969Z,10.40
2023-05-12T18:24:07.532Z,6.70
2023-05-12T18:26:34.686Z,9.80
2023-05-12T18:29:01.906Z,8.10
2023-05-12T18:31:29.509Z,9.50
2023-05-12T18:33:56.853Z,9.20
2023-05-12T18:36:24.001Z,5.30
2023-05-12T18:38:51.259Z,7.30
2023-05-12T18:41:18.413Z,7.00
2023-05-12T18:43:46.382Z,10.50
2023-05-12T18:46:13.765Z,6.70
2023-05-12T18:48:41.202Z,7.70
2023-05-12T18:51:08.366Z,5.10
2023-05-12T18:53:35.507Z,6.20
2023-05-12T18:56:02.659Z,6.70
2023-05-12T18:58:32.375Z,7.90
2023-05-12T19:00:59.525Z,10.50
2023-05-12T19:03:26.683Z,8.30
2023-05-12T19:05:53.963Z,5.70
2023-05-12T19:08:21.501Z,8.70
2023-05-12T19:10:48.767Z,8.00
2023-05-12T19:13:16.113Z,10.10
2023-05-12T19:15:43.291Z,9.40
2023-05-12T19:18:10.417Z,9.60
2023-05-12T19:20:37.891Z,12.10
2023-05-12T19:23:05.032Z,9.70
2023-05-12T19:25:32.192Z,5.90
2023-05-12T19:27:59.341Z,7.40
2023-05-12T19:30:27.824Z,8.40
2023-05-12T19:32:55.006Z,7.10
2023-05-12T19:35:22.998Z,6.30
2023-05-12T19:37:50.409Z,6.50
2023-05-12T19:40:17.563Z,7.40
2023-05-12T19:42:44.927Z,8.60
2023-05-12T19:45:12.481Z,8.50
2023-05-12T19:47:39.780Z,6.50
2023-05-12T19:50:08.135Z,6.70
2023-05-12T19:52:35.584Z,7.70
2023-05-12T19:55:02.731Z,5.30
2023-05-12T19:57:29.887Z,8.90
2023-05-12T19:59:57.051Z,5.40
2023-05-12T20:02:31.014Z,4.20
2023-05-12T20:05:01.490Z,5.70
2023-05-12T20:07:28.745Z,6.30
2023-05-12T20:09:56.008Z,6.70
2023-05-12T20:12:23.149Z,7.90
2023-05-12T20:14:50.300Z,6.00
2023-05-12T20:17:18.072Z,6.70
2023-05-12T20:19:45.348Z,10.00
2023-05-12T20:22:13.089Z,8.40
2023-05-12T20:24:40.250Z,9.80
2023-05-12T20:27:08.318Z,5.80
2023-05-12T20:29:35.681Z,10.70
2023-05-12T20:32:02.930Z,6.40
2023-05-12T20:34:30.081Z,7.30
2023-05-12T20:36:57.749Z,7.50
2023-05-12T20:39:24.907Z,9.60
2023-05-12T20:41:52.061Z,6.50
2023-05-12T20:44:20.336Z,7.70
2023-05-12T20:46:48.319Z,7.20
2023-05-12T20:49:15.560Z,9.30
2023-05-12T20:51:42.718Z,8.50
2023-05-12T20:54:09.868Z,8.30
2023-05-12T20:56:37.019Z,8.50
2023-05-12T20:59:04.180Z,6.20
2023-05-12T21:01:31.395Z,7.40
2023-05-12T21:03:58.613Z,7.70
2023-05-12T21:06:26.037Z,7.40
2023-05-12T21:08:53.297Z,8.90
2023-05-12T21:11:21.269Z,9.00
2023-05-12T21:13:48.466Z,24.40
2023-05-12T21:16:16.769Z,9.10
2023-05-12T21:18:44.418Z,9.10
2023-05-12T21:21:11.535Z,15.30
2023-05-12T21:23:38.775Z,8.30
2023-05-12T21:26:06.247Z,8.50
2023-05-12T21:28:33.381Z,10.40
2023-05-12T21:31:00.474Z,9.30
2023-05-12T21:33:28.100Z,10.80
2023-05-12T21:35:55.456Z,11.40
2023-05-12T21:38:22.609Z,15.90
2023-05-12T21:40:52.705Z,10.20
2023-05-12T21:43:19.885Z,11.30
2023-05-12T21:45:47.068Z,9.60
2023-05-12T21:48:14.392Z,6.70
2023-05-12T21:50:41.553Z,5.80
2023-05-12T21:53:08.697Z,6.70
2023-05-12T21:55:35.862Z,5.80
2023-05-12T21:58:03.007Z,5.80
2023-05-12T22:00:30.166Z,10.30
2023-05-12T22:02:57.374Z,12.50
2023-05-12T22:05:24.671Z,15.70
2023-05-12T22:07:51.826Z,8.50
2023-05-12T22:10:19.200Z,10.00
2023-05-12T22:12:46.952Z,7.70
2023-05-12T22:15:14.106Z,8.90
2023-05-12T22:17:41.315Z,8.10
2023-05-12T22:20:09.534Z,6.80
2023-05-12T22:22:37.000Z,10.30
2023-05-12T22:25:04.952Z,13.60
2023-05-12T22:27:32.126Z,7.60
2023-05-12T22:29:59.273Z,12.20
2023-05-12T22:32:26.545Z,10.60
2023-05-12T22:34:54.197Z,8.70
2023-05-12T22:37:22.477Z,7.90
2023-05-12T22:39:49.626Z,8.00
2023-05-12T22:42:16.783Z,8.30
2023-05-12T22:44:43.934Z,10.70
2023-05-12T22:47:11.434Z,9.00
2023-05-12T22:49:38.858Z,9.00
2023-05-12T22:52:06.705Z,7.30
2023-05-12T22:54:33.880Z,8.40
2023-05-12T22:57:01.024Z,7.50
2023-05-12T22:59:28.175Z,12.10
2023-05-12T23:01:55.328Z,7.90
2023-05-12T23:04:22.526Z,6.90
2023-05-12T23:06:49.752Z,11.20
2023-05-12T23:09:16.898Z,9.20
2023-05-12T23:11:44.042Z,9.00
2023-05-12T23:14:11.804Z,7.30
2023-05-12T23:16:38.987Z,7.20
2023-05-12T23:19:06.230Z,8.70
2023-05-12T23:21:33.668Z,10.80
2023-05-12T23:24:01.130Z,9.90
2023-05-12T23:26:28.283Z,8.70
2023-05-12T23:28:55.450Z,6.30
2023-05-12T23:31:22.599Z,9.30
2023-05-12T23:33:50.068Z,7.80
2023-05-12T23:36:17.303Z,12.80
2023-05-12T23:38:44.761Z,6.60
2023-05-12T23:44:01.700Z,7.80
2023-05-12T23:46:28.927Z,7.50
2023-05-12T23:48:56.822Z,5.60
2023-05-12T23:51:24.314Z,6.30
2023-05-12T23:53:51.942Z,11.30
2023-05-12T23:56:19.092Z,9.80
2023-05-12T23:58:47.784Z,8.20
